Aeroporto :
LOGIN :

Iscrizione | Disclaimer

   EN    FR    IT 

 










Sommario :    VFR   VFR Marginale   IFR   IFR Intensivo   IFR Molto Intensivo
Visibilità : 
Base nubi : 
>= 8 km
>= 3000ft
5 / 8 km
1000 / 3000 ft
1500m / 5 km
500 / 1000 ft
800 / 1500m
200 / 500 ft
< 800m
< 200 ft
Simboli :   Temporali  Nebbia  Neve Forte  Precipitazioni Forti  Vento > 20 kt
SIGMETs :   Varie  Temporali  Ghiacco  Turbolenza  Onda orograficha  Ceneri Vulcaniche






- Altitudine del aeroporto : 40 ft
- Codice IATA : RMI


LIPR - Federico Fellini Int. Rimini

ULTIMO METAR :
  • 210550Z 14005KT 110V170 CAVOK 19/14 Q1020

METARs OBSOLETI :
  • 210520Z 14004KT CAVOK 19/14 Q1019
  • 210450Z AUTO 17004KT 9999 NCD 20/15 Q1019
  • 210420Z AUTO 18005KT 130V220 9999 NCD 21/15 Q1019
  • 210350Z AUTO 18009KT 9999 NCD 21/15 Q1019
  • 210320Z AUTO 17006KT 9999 NCD 20/15 Q1019

TAF TAF LIPR
Valido dal 21 a 06 ore il 21 a 15 ore UTC


210500Z 2106/2115 VRB05KT CAVOK
TEMPO 2106/2108 4000 BR
BECMG 2109/2111 07010KT



MetMap, La meteo Aeronautica in un colpo d'occhio ! - Copyright ORBIFLY Dicembre 2007 - Disclaimer

ORBIFLY MET'MAP TEAM :

Programmazione e sviluppo : Alexandra Zaïnal
Concezione e sviluppo : Baudouin d'Aumeries
Co-Programmazione e sviluppo : Marc-Olivier Méhu
Supporto tecnico e logistico : Manuel Goepfert
Aiuto per la traduzione : Arnaldo La Scala

Contatto : metmap@orbifly.com




FONTI E CREDITI :

   NOAA